sensor_id;sensor_type;location;lat;lon;timestamp;pressure;altitude;pressure_sealevel;temperature;humidity
31183;BME280;17813;0.000;0.000;2023-04-28T00:02:11;99568.66;;;6.24;67.19
31183;BME280;17813;0.000;0.000;2023-04-28T00:04:38;99556.41;;;6.23;67.18
31183;BME280;17813;0.000;0.000;2023-04-28T00:07:07;99564.16;;;6.26;66.48
31183;BME280;17813;0.000;0.000;2023-04-28T00:09:34;99557.72;;;6.13;68.04
31183;BME280;17813;0.000;0.000;2023-04-28T00:12:01;99549.88;;;6.11;68.79
31183;BME280;17813;0.000;0.000;2023-04-28T00:14:28;99541.19;;;6.09;68.48
31183;BME280;17813;0.000;0.000;2023-04-28T00:16:55;99542.25;;;6.05;69.02
31183;BME280;17813;0.000;0.000;2023-04-28T00:19:24;99539.34;;;5.91;69.62
31183;BME280;17813;0.000;0.000;2023-04-28T00:21:51;99533.28;;;5.89;69.96
31183;BME280;17813;0.000;0.000;2023-04-28T00:24:18;99527.19;;;5.87;69.93
31183;BME280;17813;0.000;0.000;2023-04-28T00:26:45;99531.78;;;5.82;70.55
31183;BME280;17813;0.000;0.000;2023-04-28T00:29:12;99532.97;;;5.75;70.77
31183;BME280;17813;0.000;0.000;2023-04-28T00:31:39;99536.75;;;5.68;71.36
31183;BME280;17813;0.000;0.000;2023-04-28T00:34:06;99532.53;;;5.64;71.89
31183;BME280;17813;0.000;0.000;2023-04-28T00:36:34;99528.94;;;5.66;70.99
31183;BME280;17813;0.000;0.000;2023-04-28T00:39:01;99525.13;;;5.73;71.02
31183;BME280;17813;0.000;0.000;2023-04-28T00:41:28;99512.50;;;5.81;70.53
31183;BME280;17813;0.000;0.000;2023-04-28T00:43:55;99504.31;;;5.89;70.18
31183;BME280;17813;0.000;0.000;2023-04-28T00:46:26;99513.06;;;5.90;70.47
31183;BME280;17813;0.000;0.000;2023-04-28T00:48:55;99497.81;;;5.98;69.55
31183;BME280;17813;0.000;0.000;2023-04-28T00:51:23;99480.75;;;6.06;69.49
31183;BME280;17813;0.000;0.000;2023-04-28T00:53:50;99505.06;;;6.13;69.00
31183;BME280;17813;0.000;0.000;2023-04-28T00:56:17;99494.53;;;6.13;68.95
31183;BME280;17813;0.000;0.000;2023-04-28T00:58:45;99495.25;;;6.17;68.63
31183;BME280;17813;0.000;0.000;2023-04-28T01:01:12;99503.00;;;6.20;68.55
31183;BME280;17813;0.000;0.000;2023-04-28T01:03:39;99497.59;;;6.23;68.61
31183;BME280;17813;0.000;0.000;2023-04-28T01:06:08;99496.34;;;6.31;68.72
31183;BME280;17813;0.000;0.000;2023-04-28T01:08:37;99500.56;;;6.35;69.20
31183;BME280;17813;0.000;0.000;2023-04-28T01:11:04;99497.69;;;6.21;69.83
31183;BME280;17813;0.000;0.000;2023-04-28T01:13:58;99487.53;;;6.12;70.44
31183;BME280;17813;0.000;0.000;2023-04-28T01:16:25;99481.28;;;6.15;70.44
31183;BME280;17813;0.000;0.000;2023-04-28T01:18:54;99483.84;;;6.16;70.36
31183;BME280;17813;0.000;0.000;2023-04-28T01:21:26;99472.41;;;6.17;70.08
31183;BME280;17813;0.000;0.000;2023-04-28T01:23:59;99460.09;;;6.18;70.66
31183;BME280;17813;0.000;0.000;2023-04-28T01:26:27;99461.81;;;6.19;71.01
31183;BME280;17813;0.000;0.000;2023-04-28T01:28:54;99471.34;;;6.21;70.87
31183;BME280;17813;0.000;0.000;2023-04-28T01:31:21;99465.88;;;6.26;71.10
31183;BME280;17813;0.000;0.000;2023-04-28T01:33:48;99465.03;;;6.25;71.55
31183;BME280;17813;0.000;0.000;2023-04-28T01:36:14;99469.69;;;6.19;71.89
31183;BME280;17813;0.000;0.000;2023-04-28T01:38:41;99471.47;;;6.18;72.49
31183;BME280;17813;0.000;0.000;2023-04-28T01:41:08;99470.22;;;6.27;71.96
31183;BME280;17813;0.000;0.000;2023-04-28T01:43:35;99468.88;;;6.37;71.08
31183;BME280;17813;0.000;0.000;2023-04-28T01:46:02;99463.19;;;6.46;71.28
31183;BME280;17813;0.000;0.000;2023-04-28T01:48:30;99454.94;;;6.54;70.88
31183;BME280;17813;0.000;0.000;2023-04-28T01:50:57;99448.69;;;6.56;70.61
31183;BME280;17813;0.000;0.000;2023-04-28T01:53:24;99447.13;;;6.52;70.64
31183;BME280;17813;0.000;0.000;2023-04-28T01:55:52;99445.34;;;6.53;71.24
31183;BME280;17813;0.000;0.000;2023-04-28T01:58:20;99443.41;;;6.56;70.42
31183;BME280;17813;0.000;0.000;2023-04-28T02:00:47;99445.13;;;6.57;70.99
31183;BME280;17813;0.000;0.000;2023-04-28T02:03:14;99438.28;;;6.53;70.65
31183;BME280;17813;0.000;0.000;2023-04-28T02:05:41;99439.28;;;6.51;70.81
31183;BME280;17813;0.000;0.000;2023-04-28T02:08:08;99421.69;;;6.51;70.89
31183;BME280;17813;0.000;0.000;2023-04-28T02:10:35;99424.25;;;6.53;70.42
31183;BME280;17813;0.000;0.000;2023-04-28T02:13:02;99425.91;;;6.55;70.85
31183;BME280;17813;0.000;0.000;2023-04-28T02:15:29;99424.13;;;6.56;70.49
31183;BME280;17813;0.000;0.000;2023-04-28T02:17:56;99423.19;;;6.57;70.17
31183;BME280;17813;0.000;0.000;2023-04-28T02:20:25;99423.06;;;6.60;70.24
31183;BME280;17813;0.000;0.000;2023-04-28T02:22:52;99424.63;;;6.64;69.97
31183;BME280;17813;0.000;0.000;2023-04-28T02:25:18;99426.47;;;6.62;70.22
31183;BME280;17813;0.000;0.000;2023-04-28T02:27:47;99428.03;;;6.66;69.60
31183;BME280;17813;0.000;0.000;2023-04-28T02:30:14;99434.59;;;6.76;70.20
31183;BME280;17813;0.000;0.000;2023-04-28T02:32:41;99436.09;;;6.82;70.35
31183;BME280;17813;0.000;0.000;2023-04-28T02:35:08;99428.75;;;6.88;69.71
31183;BME280;17813;0.000;0.000;2023-04-28T02:37:35;99424.88;;;6.95;70.20
31183;BME280;17813;0.000;0.000;2023-04-28T02:40:02;99424.09;;;6.93;69.58
31183;BME280;17813;0.000;0.000;2023-04-28T02:42:29;99410.44;;;6.85;70.01
31183;BME280;17813;0.000;0.000;2023-04-28T02:44:56;99410.78;;;6.77;70.18
31183;BME280;17813;0.000;0.000;2023-04-28T02:47:23;99419.84;;;6.72;70.90
31183;BME280;17813;0.000;0.000;2023-04-28T02:50:06;99416.78;;;6.62;71.07
31183;BME280;17813;0.000;0.000;2023-04-28T02:52:33;99417.28;;;6.70;70.58
31183;BME280;17813;0.000;0.000;2023-04-28T02:55:00;99413.44;;;6.77;70.21
31183;BME280;17813;0.000;0.000;2023-04-28T02:57:29;99415.00;;;6.82;70.25
31183;BME280;17813;0.000;0.000;2023-04-28T02:59:56;99411.22;;;6.87;70.22
31183;BME280;17813;0.000;0.000;2023-04-28T03:02:23;99410.22;;;6.90;70.01
31183;BME280;17813;0.000;0.000;2023-04-28T03:04:50;99403.09;;;6.92;70.30
31183;BME280;17813;0.000;0.000;2023-04-28T03:07:17;99405.88;;;6.89;70.44
31183;BME280;17813;0.000;0.000;2023-04-28T03:09:44;99391.97;;;6.85;71.19
31183;BME280;17813;0.000;0.000;2023-04-28T03:12:28;99397.41;;;6.82;70.66
31183;BME280;17813;0.000;0.000;2023-04-28T03:14:55;99387.41;;;6.89;70.29
31183;BME280;17813;0.000;0.000;2023-04-28T03:17:22;99384.78;;;6.89;70.83
31183;BME280;17813;0.000;0.000;2023-04-28T03:19:49;99386.56;;;6.88;70.41
31183;BME280;17813;0.000;0.000;2023-04-28T03:22:16;99373.22;;;6.91;70.35
31183;BME280;17813;0.000;0.000;2023-04-28T03:24:43;99375.09;;;6.89;70.67
31183;BME280;17813;0.000;0.000;2023-04-28T03:27:10;99376.88;;;6.89;70.48
31183;BME280;17813;0.000;0.000;2023-04-28T03:29:37;99362.84;;;6.88;70.52
31183;BME280;17813;0.000;0.000;2023-04-28T03:32:04;99370.75;;;6.88;70.64
31183;BME280;17813;0.000;0.000;2023-04-28T03:34:31;99363.47;;;6.93;70.50
31183;BME280;17813;0.000;0.000;2023-04-28T03:36:58;99367.03;;;6.92;70.82
31183;BME280;17813;0.000;0.000;2023-04-28T03:39:25;99353.84;;;6.92;70.42
31183;BME280;17813;0.000;0.000;2023-04-28T03:41:52;99346.00;;;6.91;70.16
31183;BME280;17813;0.000;0.000;2023-04-28T03:44:19;99348.72;;;6.89;70.42
31183;BME280;17813;0.000;0.000;2023-04-28T03:46:47;99348.81;;;6.88;70.49
31183;BME280;17813;0.000;0.000;2023-04-28T03:49:14;99344.31;;;6.90;70.58
31183;BME280;17813;0.000;0.000;2023-04-28T03:51:41;99348.50;;;6.94;70.31
31183;BME280;17813;0.000;0.000;2023-04-28T03:54:08;99347.56;;;6.95;70.59
31183;BME280;17813;0.000;0.000;2023-04-28T03:56:35;99333.69;;;6.91;70.46
31183;BME280;17813;0.000;0.000;2023-04-28T03:59:02;99340.81;;;6.89;70.43
31183;BME280;17813;0.000;0.000;2023-04-28T04:01:29;99337.25;;;6.90;70.49
31183;BME280;17813;0.000;0.000;2023-04-28T04:03:56;99326.06;;;6.85;71.03
31183;BME280;17813;0.000;0.000;2023-04-28T04:06:23;99322.97;;;6.77;71.45
31183;BME280;17813;0.000;0.000;2023-04-28T04:08:50;99326.75;;;6.71;72.12
31183;BME280;17813;0.000;0.000;2023-04-28T04:11:22;99324.19;;;6.70;71.81
31183;BME280;17813;0.000;0.000;2023-04-28T04:13:49;99323.97;;;6.74;72.32
31183;BME280;17813;0.000;0.000;2023-04-28T04:16:16;99321.09;;;6.79;71.65
31183;BME280;17813;0.000;0.000;2023-04-28T04:18:43;99325.94;;;6.88;71.29
31183;BME280;17813;0.000;0.000;2023-04-28T04:21:10;99324.69;;;6.95;71.10
31183;BME280;17813;0.000;0.000;2023-04-28T04:23:37;99320.06;;;7.00;70.88
31183;BME280;17813;0.000;0.000;2023-04-28T04:26:04;99317.09;;;7.06;71.52
31183;BME280;17813;0.000;0.000;2023-04-28T04:28:31;99317.81;;;7.10;71.07
31183;BME280;17813;0.000;0.000;2023-04-28T04:30:58;99311.06;;;7.22;70.59
31183;BME280;17813;0.000;0.000;2023-04-28T04:33:27;99307.19;;;7.29;70.53
31183;BME280;17813;0.000;0.000;2023-04-28T04:35:54;99304.78;;;7.41;70.48
31183;BME280;17813;0.000;0.000;2023-04-28T04:38:22;99298.41;;;7.46;70.56
31183;BME280;17813;0.000;0.000;2023-04-28T04:41:04;99289.50;;;7.31;70.83
31183;BME280;17813;0.000;0.000;2023-04-28T04:43:31;99290.66;;;7.25;71.26
31183;BME280;17813;0.000;0.000;2023-04-28T04:45:58;99301.91;;;7.29;71.01
31183;BME280;17813;0.000;0.000;2023-04-28T04:48:26;99299.03;;;7.33;70.82
31183;BME280;17813;0.000;0.000;2023-04-28T04:50:58;99293.06;;;7.30;70.15
31183;BME280;17813;0.000;0.000;2023-04-28T04:53:25;99296.16;;;7.38;70.51
31183;BME280;17813;0.000;0.000;2023-04-28T04:55:55;99292.13;;;7.48;70.13
31183;BME280;17813;0.000;0.000;2023-04-28T04:58:28;99281.31;;;7.53;69.63
31183;BME280;17813;0.000;0.000;2023-04-28T05:01:00;99283.56;;;7.60;69.90
31183;BME280;17813;0.000;0.000;2023-04-28T05:03:39;99289.53;;;7.64;69.80
31183;BME280;17813;0.000;0.000;2023-04-28T05:06:06;99287.25;;;7.73;69.52
31183;BME280;17813;0.000;0.000;2023-04-28T05:08:32;99290.38;;;7.82;69.37
31183;BME280;17813;0.000;0.000;2023-04-28T05:10:59;99276.00;;;7.87;69.05
31183;BME280;17813;0.000;0.000;2023-04-28T05:13:26;99281.69;;;7.95;69.24
31183;BME280;17813;0.000;0.000;2023-04-28T05:15:53;99276.50;;;7.94;69.15
31183;BME280;17813;0.000;0.000;2023-04-28T05:18:20;99266.56;;;7.99;68.93
31183;BME280;17813;0.000;0.000;2023-04-28T05:20:48;99268.09;;;8.03;69.23
31183;BME280;17813;0.000;0.000;2023-04-28T05:23:15;99281.56;;;8.14;69.05
31183;BME280;17813;0.000;0.000;2023-04-28T05:25:45;99260.34;;;8.31;68.20
31183;BME280;17813;0.000;0.000;2023-04-28T05:28:13;99272.22;;;8.56;67.68
31183;BME280;17813;0.000;0.000;2023-04-28T05:30:40;99265.50;;;8.80;66.87
31183;BME280;17813;0.000;0.000;2023-04-28T05:33:22;99262.34;;;8.89;66.19
31183;BME280;17813;0.000;0.000;2023-04-28T05:35:49;99263.84;;;8.93;65.33
31183;BME280;17813;0.000;0.000;2023-04-28T05:38:17;99254.97;;;8.94;65.98
31183;BME280;17813;0.000;0.000;2023-04-28T05:40:48;99251.03;;;9.01;65.34
31183;BME280;17813;0.000;0.000;2023-04-28T05:43:15;99246.41;;;9.05;65.59
31183;BME280;17813;0.000;0.000;2023-04-28T05:45:45;99248.03;;;9.08;65.66
31183;BME280;17813;0.000;0.000;2023-04-28T05:48:14;99240.94;;;9.08;64.84
31183;BME280;17813;0.000;0.000;2023-04-28T05:50:41;99241.59;;;8.97;65.46
31183;BME280;17813;0.000;0.000;2023-04-28T05:53:08;99238.31;;;9.08;65.41
31183;BME280;17813;0.000;0.000;2023-04-28T05:55:35;99247.66;;;9.14;64.82
31183;BME280;17813;0.000;0.000;2023-04-28T05:58:03;99236.06;;;9.16;64.56
31183;BME280;17813;0.000;0.000;2023-04-28T06:00:30;99247.88;;;9.25;64.56
31183;BME280;17813;0.000;0.000;2023-04-28T06:03:04;99238.81;;;9.29;64.49
31183;BME280;17813;0.000;0.000;2023-04-28T06:05:38;99241.66;;;9.40;64.45
31183;BME280;17813;0.000;0.000;2023-04-28T06:08:12;99234.56;;;9.41;63.82
31183;BME280;17813;0.000;0.000;2023-04-28T06:10:39;99229.66;;;9.49;63.81
31183;BME280;17813;0.000;0.000;2023-04-28T06:13:07;99228.53;;;9.39;64.82
31183;BME280;17813;0.000;0.000;2023-04-28T06:15:34;99234.19;;;9.47;64.30
31183;BME280;17813;0.000;0.000;2023-04-28T06:18:01;99238.19;;;9.54;64.57
31183;BME280;17813;0.000;0.000;2023-04-28T06:20:28;99233.16;;;9.63;64.68
31183;BME280;17813;0.000;0.000;2023-04-28T06:22:55;99237.22;;;9.69;64.11
31183;BME280;17813;0.000;0.000;2023-04-28T06:25:23;99234.41;;;9.72;64.40
31183;BME280;17813;0.000;0.000;2023-04-28T06:27:51;99230.22;;;9.82;64.33
31183;BME280;17813;0.000;0.000;2023-04-28T06:30:30;99232.78;;;9.84;64.58
31183;BME280;17813;0.000;0.000;2023-04-28T06:32:57;99234.56;;;9.97;64.57
31183;BME280;17813;0.000;0.000;2023-04-28T06:35:24;99231.97;;;10.10;64.42
31183;BME280;17813;0.000;0.000;2023-04-28T06:37:51;99240.03;;;10.23;64.27
31183;BME280;17813;0.000;0.000;2023-04-28T06:40:18;99243.88;;;10.31;64.33
31183;BME280;17813;0.000;0.000;2023-04-28T06:42:47;99236.97;;;10.43;63.74
31183;BME280;17813;0.000;0.000;2023-04-28T06:45:17;99239.13;;;10.51;63.69
31183;BME280;17813;0.000;0.000;2023-04-28T06:47:45;99228.78;;;10.60;64.15
31183;BME280;17813;0.000;0.000;2023-04-28T06:50:24;99222.97;;;10.68;63.41
31183;BME280;17813;0.000;0.000;2023-04-28T06:52:53;99222.47;;;10.76;63.16
31183;BME280;17813;0.000;0.000;2023-04-28T06:55:20;99220.69;;;10.89;63.99
31183;BME280;17813;0.000;0.000;2023-04-28T06:57:49;99218.91;;;11.02;63.59
31183;BME280;17813;0.000;0.000;2023-04-28T07:00:16;99220.22;;;11.22;63.42
31183;BME280;17813;0.000;0.000;2023-04-28T07:02:46;99219.56;;;11.31;62.68
31183;BME280;17813;0.000;0.000;2023-04-28T07:05:30;99215.75;;;11.35;62.77
31183;BME280;17813;0.000;0.000;2023-04-28T07:07:59;99210.56;;;11.46;63.01
31183;BME280;17813;0.000;0.000;2023-04-28T07:10:26;99201.19;;;11.53;62.28
31183;BME280;17813;0.000;0.000;2023-04-28T07:12:53;99206.09;;;11.59;62.30
31183;BME280;17813;0.000;0.000;2023-04-28T07:15:20;99192.25;;;11.67;62.01
31183;BME280;17813;0.000;0.000;2023-04-28T07:17:52;99199.19;;;11.82;62.22
31183;BME280;17813;0.000;0.000;2023-04-28T07:20:20;99203.69;;;12.06;62.38
31183;BME280;17813;0.000;0.000;2023-04-28T07:22:47;99205.09;;;12.35;62.36
31183;BME280;17813;0.000;0.000;2023-04-28T07:25:14;99204.34;;;12.57;61.66
31183;BME280;17813;0.000;0.000;2023-04-28T07:27:41;99206.84;;;12.71;59.65
31183;BME280;17813;0.000;0.000;2023-04-28T07:30:08;99203.72;;;12.77;57.05
31183;BME280;17813;0.000;0.000;2023-04-28T07:32:34;99208.81;;;12.80;57.67
31183;BME280;17813;0.000;0.000;2023-04-28T07:35:02;99199.16;;;12.91;56.78
31183;BME280;17813;0.000;0.000;2023-04-28T07:37:29;99199.84;;;13.05;56.03
31183;BME280;17813;0.000;0.000;2023-04-28T07:39:57;99187.69;;;13.25;56.63
31183;BME280;17813;0.000;0.000;2023-04-28T07:42:24;99195.59;;;13.38;55.78
31183;BME280;17813;0.000;0.000;2023-04-28T07:44:51;99203.22;;;13.54;55.86
31183;BME280;17813;0.000;0.000;2023-04-28T07:47:18;99195.84;;;13.68;54.78
31183;BME280;17813;0.000;0.000;2023-04-28T07:49:46;99199.97;;;13.61;54.96
31183;BME280;17813;0.000;0.000;2023-04-28T07:52:13;99192.44;;;13.77;54.36
31183;BME280;17813;0.000;0.000;2023-04-28T07:54:40;99192.81;;;13.95;53.65
31183;BME280;17813;0.000;0.000;2023-04-28T07:57:07;99191.69;;;14.09;54.21
31183;BME280;17813;0.000;0.000;2023-04-28T07:59:35;99191.88;;;14.39;54.48
31183;BME280;17813;0.000;0.000;2023-04-28T08:02:02;99187.34;;;14.62;52.81
31183;BME280;17813;0.000;0.000;2023-04-28T08:04:29;99183.19;;;14.69;53.18
31183;BME280;17813;0.000;0.000;2023-04-28T08:06:59;99185.94;;;14.79;53.06
31183;BME280;17813;0.000;0.000;2023-04-28T08:09:26;99179.88;;;14.77;52.66
31183;BME280;17813;0.000;0.000;2023-04-28T08:11:53;99193.19;;;14.56;51.09
31183;BME280;17813;0.000;0.000;2023-04-28T08:14:20;99196.56;;;14.58;52.99
31183;BME280;17813;0.000;0.000;2023-04-28T08:16:48;99190.81;;;14.42;52.79
31183;BME280;17813;0.000;0.000;2023-04-28T08:19:18;99198.94;;;14.29;53.41
31183;BME280;17813;0.000;0.000;2023-04-28T08:21:45;99200.03;;;14.15;54.14
31183;BME280;17813;0.000;0.000;2023-04-28T08:24:12;99193.53;;;13.97;54.33
31183;BME280;17813;0.000;0.000;2023-04-28T08:26:40;99197.78;;;13.89;54.75
31183;BME280;17813;0.000;0.000;2023-04-28T08:29:07;99197.66;;;13.90;55.65
31183;BME280;17813;0.000;0.000;2023-04-28T08:31:34;99194.63;;;13.83;55.62
31183;BME280;17813;0.000;0.000;2023-04-28T08:34:02;99195.84;;;13.68;55.28
31183;BME280;17813;0.000;0.000;2023-04-28T08:36:29;99192.56;;;13.54;55.74
31183;BME280;17813;0.000;0.000;2023-04-28T08:38:59;99190.25;;;13.27;56.34
31183;BME280;17813;0.000;0.000;2023-04-28T08:41:55;99195.38;;;12.82;56.97
31183;BME280;17813;0.000;0.000;2023-04-28T08:44:22;99198.69;;;12.62;57.45
31183;BME280;17813;0.000;0.000;2023-04-28T08:46:49;99208.94;;;12.31;59.06
31183;BME280;17813;0.000;0.000;2023-04-28T08:49:23;99218.50;;;11.97;59.65
31183;BME280;17813;0.000;0.000;2023-04-28T08:51:59;99216.81;;;11.83;59.43
31183;BME280;17813;0.000;0.000;2023-04-28T08:54:35;99206.19;;;11.71;60.81
31183;BME280;17813;0.000;0.000;2023-04-28T08:57:04;99208.84;;;11.71;60.81
31183;BME280;17813;0.000;0.000;2023-04-28T08:59:44;99204.69;;;11.67;61.25
31183;BME280;17813;0.000;0.000;2023-04-28T09:02:14;99209.91;;;11.68;61.33
31183;BME280;17813;0.000;0.000;2023-04-28T09:04:43;99216.94;;;11.82;61.99
31183;BME280;17813;0.000;0.000;2023-04-28T09:07:13;99220.72;;;11.90;61.87
31183;BME280;17813;0.000;0.000;2023-04-28T09:09:40;99220.94;;;12.00;62.69
31183;BME280;17813;0.000;0.000;2023-04-28T09:12:08;99221.88;;;11.99;63.04
31183;BME280;17813;0.000;0.000;2023-04-28T09:14:38;99221.06;;;11.86;63.64
31183;BME280;17813;0.000;0.000;2023-04-28T09:17:13;99218.50;;;11.59;65.59
31183;BME280;17813;0.000;0.000;2023-04-28T09:19:40;99216.28;;;11.53;66.47
31183;BME280;17813;0.000;0.000;2023-04-28T09:22:12;99212.47;;;11.44;67.09
31183;BME280;17813;0.000;0.000;2023-04-28T09:24:40;99212.69;;;11.41;68.17
31183;BME280;17813;0.000;0.000;2023-04-28T09:27:09;99221.38;;;11.43;68.63
31183;BME280;17813;0.000;0.000;2023-04-28T09:29:38;99224.78;;;11.45;69.03
31183;BME280;17813;0.000;0.000;2023-04-28T09:32:27;99221.69;;;11.39;69.53
31183;BME280;17813;0.000;0.000;2023-04-28T09:34:56;99211.63;;;11.44;69.51
31183;BME280;17813;0.000;0.000;2023-04-28T09:37:25;99211.28;;;11.48;70.24
31183;BME280;17813;0.000;0.000;2023-04-28T09:40:07;99207.78;;;11.48;69.58
31183;BME280;17813;0.000;0.000;2023-04-28T09:42:40;99205.56;;;11.54;69.83
31183;BME280;17813;0.000;0.000;2023-04-28T09:47:39;99200.34;;;11.53;70.11
31183;BME280;17813;0.000;0.000;2023-04-28T09:50:13;99198.44;;;11.55;70.23
31183;BME280;17813;0.000;0.000;2023-04-28T09:52:45;99209.25;;;11.65;70.43
31183;BME280;17813;0.000;0.000;2023-04-28T09:55:22;99209.78;;;11.70;70.04
31183;BME280;17813;0.000;0.000;2023-04-28T09:57:49;99200.00;;;11.70;69.89
31183;BME280;17813;0.000;0.000;2023-04-28T10:00:20;99189.59;;;11.67;69.87
31183;BME280;17813;0.000;0.000;2023-04-28T10:02:52;99193.13;;;11.68;70.21
31183;BME280;17813;0.000;0.000;2023-04-28T10:05:21;99194.59;;;11.72;70.12
31183;BME280;17813;0.000;0.000;2023-04-28T10:07:49;99193.53;;;11.62;69.88
31183;BME280;17813;0.000;0.000;2023-04-28T10:10:17;99197.81;;;11.51;71.26
31183;BME280;17813;0.000;0.000;2023-04-28T10:12:45;99196.94;;;11.51;71.36
31183;BME280;17813;0.000;0.000;2023-04-28T10:15:13;99190.16;;;11.47;71.67
31183;BME280;17813;0.000;0.000;2023-04-28T10:17:40;99193.44;;;11.50;71.76
31183;BME280;17813;0.000;0.000;2023-04-28T10:20:08;99186.75;;;11.57;72.39
31183;BME280;17813;0.000;0.000;2023-04-28T10:25:48;99183.03;;;11.47;72.32
31183;BME280;17813;0.000;0.000;2023-04-28T10:28:18;99181.22;;;11.48;72.11
31183;BME280;17813;0.000;0.000;2023-04-28T10:31:08;99169.13;;;11.44;72.22
31183;BME280;17813;0.000;0.000;2023-04-28T10:33:35;99171.34;;;11.50;71.96
31183;BME280;17813;0.000;0.000;2023-04-28T10:36:04;99159.56;;;11.54;72.01
31183;BME280;17813;0.000;0.000;2023-04-28T10:38:32;99155.50;;;11.61;72.66
31183;BME280;17813;0.000;0.000;2023-04-28T10:40:59;99154.13;;;11.81;72.76
31183;BME280;17813;0.000;0.000;2023-04-28T10:43:36;99151.59;;;12.03;72.46
31183;BME280;17813;0.000;0.000;2023-04-28T10:46:08;99138.66;;;12.22;72.15
31183;BME280;17813;0.000;0.000;2023-04-28T10:56:23;99131.56;;;12.58;71.42
31183;BME280;17813;0.000;0.000;2023-04-28T10:58:52;99136.91;;;12.69;71.11
31183;BME280;17813;0.000;0.000;2023-04-28T11:01:33;99137.69;;;12.82;70.33
31183;BME280;17813;0.000;0.000;2023-04-28T11:04:06;99135.53;;;12.87;69.87
31183;BME280;17813;0.000;0.000;2023-04-28T11:06:37;99136.81;;;13.06;70.91
31183;BME280;17813;0.000;0.000;2023-04-28T11:12:07;99132.50;;;13.38;69.64
31183;BME280;17813;0.000;0.000;2023-04-28T11:14:37;99127.28;;;13.59;69.90
31183;BME280;17813;0.000;0.000;2023-04-28T11:17:10;99123.16;;;13.77;68.40
31183;BME280;17813;0.000;0.000;2023-04-28T11:20:03;99125.34;;;13.83;69.26
31183;BME280;17813;0.000;0.000;2023-04-28T11:22:31;99115.84;;;14.02;67.37
31183;BME280;17813;0.000;0.000;2023-04-28T11:25:02;99108.81;;;14.01;67.88
31183;BME280;17813;0.000;0.000;2023-04-28T11:27:59;99116.56;;;14.04;68.48
31183;BME280;17813;0.000;0.000;2023-04-28T11:30:28;99111.66;;;14.20;67.59
31183;BME280;17813;0.000;0.000;2023-04-28T11:32:55;99100.63;;;14.25;65.75
31183;BME280;17813;0.000;0.000;2023-04-28T11:35:23;99086.56;;;14.23;65.50
31183;BME280;17813;0.000;0.000;2023-04-28T11:38:01;99088.50;;;14.21;64.68
31183;BME280;17813;0.000;0.000;2023-04-28T11:40:30;99087.28;;;14.25;64.93
31183;BME280;17813;0.000;0.000;2023-04-28T11:43:51;99096.03;;;14.15;65.36
31183;BME280;17813;0.000;0.000;2023-04-28T11:46:16;99084.31;;;14.07;65.16
31183;BME280;17813;0.000;0.000;2023-04-28T11:49:02;99083.06;;;14.22;65.50
31183;BME280;17813;0.000;0.000;2023-04-28T11:51:36;99085.34;;;14.27;64.23
31183;BME280;17813;0.000;0.000;2023-04-28T11:54:07;99091.69;;;14.14;65.32
31183;BME280;17813;0.000;0.000;2023-04-28T11:56:41;99076.19;;;14.08;64.78
31183;BME280;17813;0.000;0.000;2023-04-28T11:59:16;99078.09;;;14.18;65.39
31183;BME280;17813;0.000;0.000;2023-04-28T12:01:49;99084.78;;;14.12;65.53
31183;BME280;17813;0.000;0.000;2023-04-28T12:04:40;99088.38;;;13.90;64.77
31183;BME280;17813;0.000;0.000;2023-04-28T12:07:12;99077.63;;;13.69;65.50
31183;BME280;17813;0.000;0.000;2023-04-28T12:12:35;99075.94;;;13.68;66.48
31183;BME280;17813;0.000;0.000;2023-04-28T12:15:22;99067.59;;;13.62;65.85
31183;BME280;17813;0.000;0.000;2023-04-28T12:17:50;99070.72;;;13.67;66.16
31183;BME280;17813;0.000;0.000;2023-04-28T12:20:35;99069.78;;;13.57;66.28
31183;BME280;17813;0.000;0.000;2023-04-28T12:23:03;99071.81;;;13.64;66.75
31183;BME280;17813;0.000;0.000;2023-04-28T12:25:41;99068.44;;;13.62;66.50
31183;BME280;17813;0.000;0.000;2023-04-28T12:28:10;99081.28;;;13.57;67.06
31183;BME280;17813;0.000;0.000;2023-04-28T12:30:40;99066.88;;;13.48;66.98
31183;BME280;17813;0.000;0.000;2023-04-28T12:33:26;99071.50;;;13.35;66.71
31183;BME280;17813;0.000;0.000;2023-04-28T12:35:56;99074.88;;;13.37;67.35
31183;BME280;17813;0.000;0.000;2023-04-28T12:38:52;99069.31;;;13.40;68.22
31183;BME280;17813;0.000;0.000;2023-04-28T12:41:19;99064.19;;;13.60;67.48
31183;BME280;17813;0.000;0.000;2023-04-28T12:43:46;99065.03;;;13.60;66.81
31183;BME280;17813;0.000;0.000;2023-04-28T12:46:13;99063.25;;;13.49;67.40
31183;BME280;17813;0.000;0.000;2023-04-28T12:48:41;99058.75;;;13.61;66.68
31183;BME280;17813;0.000;0.000;2023-04-28T12:51:08;99051.59;;;13.62;66.54
31183;BME280;17813;0.000;0.000;2023-04-28T12:53:35;99050.88;;;13.60;66.54
31183;BME280;17813;0.000;0.000;2023-04-28T12:56:02;99053.03;;;13.77;66.82
31183;BME280;17813;0.000;0.000;2023-04-28T12:58:30;99042.66;;;13.95;65.95
31183;BME280;17813;0.000;0.000;2023-04-28T13:00:56;99040.22;;;14.03;66.23
31183;BME280;17813;0.000;0.000;2023-04-28T13:03:24;99031.41;;;14.23;65.28
31183;BME280;17813;0.000;0.000;2023-04-28T13:05:51;99022.94;;;14.50;65.04
31183;BME280;17813;0.000;0.000;2023-04-28T13:08:18;99013.53;;;14.76;64.98
31183;BME280;17813;0.000;0.000;2023-04-28T13:10:46;99015.72;;;14.92;63.68
31183;BME280;17813;0.000;0.000;2023-04-28T13:13:14;99009.03;;;15.07;62.60
31183;BME280;17813;0.000;0.000;2023-04-28T13:15:43;99009.63;;;15.11;63.77
31183;BME280;17813;0.000;0.000;2023-04-28T13:18:11;99010.38;;;15.23;63.47
31183;BME280;17813;0.000;0.000;2023-04-28T13:20:41;99000.56;;;15.33;62.50
31183;BME280;17813;0.000;0.000;2023-04-28T13:23:11;98992.94;;;15.28;62.59
31183;BME280;17813;0.000;0.000;2023-04-28T13:25:38;98992.28;;;15.45;61.94
31183;BME280;17813;0.000;0.000;2023-04-28T13:28:04;98994.41;;;15.52;61.55
31183;BME280;17813;0.000;0.000;2023-04-28T13:30:40;98997.38;;;15.49;61.62
31183;BME280;17813;0.000;0.000;2023-04-28T13:33:07;98985.03;;;15.57;61.30
31183;BME280;17813;0.000;0.000;2023-04-28T13:35:34;98983.25;;;15.67;61.44
31183;BME280;17813;0.000;0.000;2023-04-28T13:38:00;98979.19;;;15.73;60.29
31183;BME280;17813;0.000;0.000;2023-04-28T13:40:28;98971.31;;;15.81;59.94
31183;BME280;17813;0.000;0.000;2023-04-28T13:42:55;98975.38;;;15.85;60.35
31183;BME280;17813;0.000;0.000;2023-04-28T13:45:24;98978.75;;;15.87;60.89
31183;BME280;17813;0.000;0.000;2023-04-28T13:47:54;98975.81;;;15.71;60.01
31183;BME280;17813;0.000;0.000;2023-04-28T13:50:21;98973.25;;;15.69;60.69